Archival Weather

Heathrow

London, United Kingdom (EGLL)

Report from: Thursday, September 21, 2023 7:20 AM BST
Current time: Sunday, July 14, 2024 11:33 AM BST

Current weather – Weather history – Daily summaries
Weather forecast

Temperature11.0°C (51.8°F)
Dew point10.0°C (50.0°F)
Winds 3 kts (1.5 m/s, 3.5 mph) Vrb
Winds variableWinds variable from South-Southeast (160°) to West-Southwest (250°)
Visibility6.2 mi. (10 km)
Clouds Sky clear
Altimeter29.41 in.Hg (996 mB)
Relative humidity94 %
Density altitude286 ft. (87 m)
Remarks Fully automated report
No clouds detected
Flight conditions Visual Meteorological Conditions
Raw dataEGLL 210620Z AUTO 21003KT 160V250 9999 NCD 11/10 Q0996
An error has occurred. This application may no longer respond until reloaded. Reload 🗙